Koge, Denmark
Current Conditions -  °F | °C
As of 8:20 PM on Thursday 27 Nov 2014 (Local Time) from EKRK Reporting Station
Scattered Clouds Scattered Clouds  
Wind Chill: 35°   Ceiling: Unl
Heat Index: 43°   Visibility: 6mi
Dew Point: 34°   Wind: 17mph
Humidity: 70%   Direction: 130°SE
Pressure: 30.12"   Gusts: NA
Location:  55.45°N, 12.18°E
Report Text: EKRK 271920Z AUTO 13015KT 9999NDV FEW032/// SCT042///06/01 Q1020
Loading
Personal Weather Stations






























Interactive Weather Map New forecast layout! Learn more

10-Day Weather Forecast

Advertisements
Track Severe Weather on mobile